Time,TemperatureF,DewpointF,PressureIn,WindDirection,WindDirectionDegrees,WindSpeedMPH,WindSpeedGustMPH,Humidity,HourlyPrecipIn,Conditions,Clouds,dailyrainin,SoftwareType,DateUTC
2013-10-24 00:24:00,36.0,36.0,29.95,NNW,328,0.0,0.0,100,0.00,,,0.19,,2013-10-24 04:24:00,
2013-10-24 00:54:00,36.0,36.0,29.95,NNW,328,0.0,0.0,100,0.00,,,0.19,,2013-10-24 04:54:00,
2013-10-24 01:22:00,37.0,37.0,29.94,NNW,328,0.0,0.0,100,0.00,,,0.19,,2013-10-24 05:22:00,
2013-10-24 01:53:00,37.0,37.0,29.95,NNW,328,0.0,0.0,100,0.00,,,0.19,,2013-10-24 05:53:00,
2013-10-24 02:22:00,37.0,37.0,29.96,NNW,328,0.0,0.0,100,0.00,,,0.19,,2013-10-24 06:22:00,
2013-10-24 02:52:00,38.0,38.0,29.96,NNW,328,0.0,0.0,100,0.00,,,0.19,,2013-10-24 06:52:00,
2013-10-24 03:02:00,38.0,38.0,29.96,NNW,328,0.0,0.0,100,0.00,,,0.19,,2013-10-24 07:02:00,
2013-10-24 03:22:00,38.0,38.0,29.97,NNW,328,0.0,0.0,100,0.00,,,0.19,,2013-10-24 07:22:00,
2013-10-24 03:52:00,37.0,37.0,29.97,NNW,328,0.0,0.0,100,0.00,,,0.19,,2013-10-24 07:52:00,
2013-10-24 04:22:00,37.0,37.0,29.98,NNW,328,0.0,0.0,100,0.00,,,0.19,,2013-10-24 08:22:00,
2013-10-24 04:53:00,37.0,37.0,29.98,NNW,328,0.0,0.0,100,0.00,,,0.19,,2013-10-24 08:53:00,
2013-10-24 05:22:00,37.0,37.0,29.99,NNW,328,0.0,0.0,100,0.00,,,0.19,,2013-10-24 09:22:00,
2013-10-24 05:53:00,37.0,37.0,29.99,NNW,328,0.0,0.0,100,0.00,,,0.19,,2013-10-24 09:53:00,
2013-10-24 06:23:00,37.0,37.0,30.01,NNW,328,0.0,0.0,100,0.00,,,0.19,,2013-10-24 10:23:00,
2013-10-24 06:53:00,37.0,37.0,30.01,NNW,328,0.0,0.0,99,0.00,,,0.19,,2013-10-24 10:53:00,
2013-10-24 07:22:00,37.0,36.0,30.02,NNW,328,0.0,0.0,98,0.00,,,0.19,,2013-10-24 11:22:00,
2013-10-24 07:53:00,36.0,36.0,30.02,NNW,328,0.0,0.0,99,0.00,,,0.19,,2013-10-24 11:53:00,
2013-10-24 08:22:00,35.0,35.0,30.03,NNW,328,0.0,0.0,99,0.00,,,0.19,,2013-10-24 12:22:00,
2013-10-24 08:52:00,36.0,36.0,30.04,NNW,328,0.0,0.0,100,0.00,,,0.19,,2013-10-24 12:52:00,
2013-10-24 09:22:00,37.0,36.0,30.05,NNW,328,0.0,0.0,97,0.00,,,0.19,,2013-10-24 13:22:00,
2013-10-24 09:52:00,38.0,37.0,30.06,West,281,0.0,0.0,95,0.00,,,0.19,,2013-10-24 13:52:00,
2013-10-24 10:22:00,38.0,36.0,30.06,NW,308,0.0,0.0,94,0.00,,,0.19,,2013-10-24 14:22:00,
2013-10-24 10:52:00,41.0,36.0,30.07,SSW,194,0.0,0.0,83,0.00,,,0.19,,2013-10-24 14:52:00,
2013-10-24 11:21:00,41.0,34.0,30.07,North,6,1.0,0.0,77,0.00,,,0.19,,2013-10-24 15:21:00,
2013-10-24 11:53:00,42.0,33.0,30.07,North,356,2.0,0.0,70,0.00,,,0.19,,2013-10-24 15:53:00,
2013-10-24 12:23:00,41.0,32.0,30.07,East,98,3.0,0.0,70,0.00,,,0.19,,2013-10-24 16:23:00,
2013-10-24 12:53:00,41.0,33.0,30.06,NW,315,0.0,0.0,72,0.00,,,0.19,,2013-10-24 16:53:00,
2013-10-24 13:22:00,44.0,32.0,30.06,WNW,285,0.0,0.0,62,0.00,,,0.19,,2013-10-24 17:22:00,
2013-10-24 13:43:00,42.0,33.0,30.06,NNW,338,5.0,11.0,69,0.00,,,0.19,,2013-10-24 17:43:00,
2013-10-24 13:52:00,39.0,33.0,30.05,NNW,332,0.0,0.0,78,0.00,,,0.19,,2013-10-24 17:52:00,
2013-10-24 14:12:00,40.0,33.0,30.05,WNW,298,0.0,0.0,77,0.00,,,0.19,,2013-10-24 18:12:00,
2013-10-24 14:23:00,40.0,33.0,30.05,WNW,298,0.0,0.0,77,0.00,,,0.19,,2013-10-24 18:23:00,
2013-10-24 14:32:00,40.0,33.0,30.05,WNW,298,0.0,0.0,77,0.00,,,0.19,,2013-10-24 18:32:00,
2013-10-24 14:53:00,41.0,34.0,30.05,NNW,328,1.0,0.0,76,0.00,,,0.19,,2013-10-24 18:53:00,
2013-10-24 15:22:00,41.0,34.0,30.07,NNE,17,1.0,0.0,75,0.00,,,0.19,,2013-10-24 19:22:00,
2013-10-24 15:53:00,40.0,36.0,30.06,NW,305,0.0,0.0,86,0.00,,,0.19,,2013-10-24 19:53:00,
2013-10-24 16:23:00,41.0,36.0,30.06,NNW,330,0.0,0.0,82,0.00,,,0.19,,2013-10-24 20:23:00,
2013-10-24 16:53:00,42.0,36.0,30.06,WNW,297,1.0,0.0,79,0.00,,,0.19,,2013-10-24 20:53:00,
2013-10-24 17:22:00,42.0,35.0,30.06,NNW,346,0.0,0.0,76,0.00,,,0.19,,2013-10-24 21:22:00,
2013-10-24 17:43:00,42.0,35.0,30.07,NW,323,0.0,0.0,75,0.00,,,0.19,,2013-10-24 21:43:00,
2013-10-24 17:54:00,42.0,35.0,30.07,NNE,31,0.0,0.0,76,0.00,,,0.19,,2013-10-24 21:54:00,
2013-10-24 18:14:00,42.0,35.0,30.07,NNE,31,0.0,0.0,75,0.00,,,0.19,,2013-10-24 22:14:00,
2013-10-24 18:24:00,42.0,35.0,30.07,NNE,31,0.0,0.0,75,0.00,,,0.19,,2013-10-24 22:24:00,
2013-10-24 18:54:00,41.0,35.0,30.09,North,1,0.0,0.0,79,0.00,,,0.19,,2013-10-24 22:54:00,
2013-10-24 19:22:00,39.0,37.0,30.11,SSE,162,0.0,0.0,93,0.00,,,0.19,,2013-10-24 23:22:00,
2013-10-24 19:34:00,39.0,37.0,30.11,SSE,162,0.0,0.0,93,0.00,,,0.19,,2013-10-24 23:34:00,
2013-10-24 19:53:00,37.0,35.0,30.13,SE,138,0.0,0.0,93,0.00,,,0.19,,2013-10-24 23:53:00,
2013-10-24 20:22:00,37.0,35.0,30.14,WNW,301,0.0,0.0,94,0.00,,,0.19,,2013-10-25 00:22:00,
2013-10-24 20:52:00,37.0,36.0,30.14,WNW,301,0.0,0.0,95,0.00,,,0.19,,2013-10-25 00:52:00,
2013-10-24 21:22:00,37.0,36.0,30.14,SE,136,0.0,0.0,96,0.00,,,0.19,,2013-10-25 01:22:00,
2013-10-24 21:53:00,37.0,36.0,30.15,SE,136,0.0,0.0,96,0.00,,,0.19,,2013-10-25 01:53:00,
2013-10-24 22:23:00,37.0,36.0,30.15,SE,136,0.0,0.0,98,0.00,,,0.19,,2013-10-25 02:23:00,
2013-10-24 22:52:00,36.0,36.0,30.16,SE,136,0.0,0.0,99,0.00,,,0.19,,2013-10-25 02:52:00,
2013-10-24 23:23:00,35.0,35.0,30.16,SE,136,0.0,0.0,100,0.00,,,0.19,,2013-10-25 03:23:00,
2013-10-24 23:33:00,34.0,34.0,30.16,SE,136,0.0,0.0,100,0.00,,,0.19,,2013-10-25 03:33:00,
2013-10-24 23:54:00,34.0,34.0,30.16,SE,136,0.0,0.0,100,0.00,,,0.19,,2013-10-25 03:54:00,